createdAt,value
2023-02-23T00:01:15.509Z,97.38
2023-02-23T00:03:43.154Z,97.97
2023-02-23T00:06:10.892Z,96.35
2023-02-23T00:08:38.861Z,99.50
2023-02-23T00:11:07.265Z,92.97
2023-02-23T00:13:37.497Z,98.25
2023-02-23T00:18:50.893Z,96.50
2023-02-23T00:21:19.379Z,100.32
2023-02-23T00:23:51.354Z,95.05
2023-02-23T00:26:20.705Z,98.70
2023-02-23T00:28:50.919Z,100.70
2023-02-23T00:31:19.192Z,101.78
2023-02-23T00:33:46.675Z,102.55
2023-02-23T00:36:15.117Z,105.30
2023-02-23T00:38:42.655Z,108.53
2023-02-23T00:41:12.983Z,105.07
2023-02-23T00:43:47.414Z,107.88
2023-02-23T00:46:17.495Z,103.93
2023-02-23T00:48:45.225Z,104.45
2023-02-23T00:51:12.802Z,108.45
2023-02-23T00:53:40.178Z,109.10
2023-02-23T00:56:08.194Z,112.35
2023-02-23T00:58:35.502Z,110.93
2023-02-23T01:01:02.892Z,104.35
2023-02-23T01:03:31.626Z,108.28
2023-02-23T01:06:00.226Z,113.00
2023-02-23T01:08:27.855Z,114.68
2023-02-23T01:10:55.169Z,117.63
2023-02-23T01:13:23.632Z,114.82
2023-02-23T01:15:52.125Z,112.50
2023-02-23T01:18:20.235Z,106.53
2023-02-23T01:20:50.463Z,108.20
2023-02-23T01:23:19.759Z,106.20
2023-02-23T01:25:48.178Z,115.90
2023-02-23T01:28:15.470Z,107.28
2023-02-23T01:30:42.863Z,108.18
2023-02-23T01:33:10.209Z,107.20
2023-02-23T01:35:37.630Z,108.78
2023-02-23T01:38:06.348Z,108.18
2023-02-23T01:40:36.984Z,112.95
2023-02-23T01:43:12.868Z,110.13
2023-02-23T01:45:41.023Z,115.57
2023-02-23T01:48:12.288Z,106.00
2023-02-23T01:50:43.571Z,101.20
2023-02-23T01:53:12.428Z,101.15
2023-02-23T01:55:39.949Z,104.70
2023-02-23T01:58:15.327Z,107.13
2023-02-23T02:00:47.222Z,106.05
2023-02-23T02:03:18.316Z,110.40
2023-02-23T02:05:46.543Z,115.70
2023-02-23T02:08:15.848Z,119.28
2023-02-23T02:10:46.338Z,113.82
2023-02-23T02:13:18.163Z,114.57
2023-02-23T02:15:53.609Z,118.25
2023-02-23T02:18:24.231Z,120.50
2023-02-23T02:21:04.409Z,122.95
2023-02-23T02:24:08.059Z,121.07
2023-02-23T02:26:41.862Z,115.28
2023-02-23T02:29:28.657Z,125.07
2023-02-23T02:32:13.118Z,109.63
2023-02-23T02:34:55.396Z,118.10
2023-02-23T02:37:36.950Z,121.57
2023-02-23T02:40:17.251Z,113.95
2023-02-23T02:42:52.510Z,115.88
2023-02-23T02:45:23.525Z,112.68
2023-02-23T02:47:55.462Z,110.32
2023-02-23T02:50:25.363Z,113.07
2023-02-23T02:52:56.694Z,115.10
2023-02-23T02:55:25.632Z,116.75
2023-02-23T02:57:54.338Z,117.90
2023-02-23T03:00:41.386Z,116.55
2023-02-23T03:03:28.369Z,111.65
2023-02-23T03:06:13.316Z,116.93
2023-02-23T03:09:04.870Z,113.30
2023-02-23T03:11:55.001Z,109.60
2023-02-23T03:14:45.456Z,123.35
2023-02-23T03:17:34.369Z,117.38
2023-02-23T03:20:22.528Z,108.75
2023-02-23T03:23:12.103Z,107.50
2023-02-23T03:26:05.028Z,110.75
2023-02-23T03:28:51.412Z,112.90
2023-02-23T03:31:39.700Z,111.13
2023-02-23T03:34:28.875Z,106.95
2023-02-23T03:37:16.881Z,103.55
2023-02-23T03:40:04.162Z,96.97
2023-02-23T03:42:53.762Z,98.50
2023-02-23T03:45:39.865Z,105.78
2023-02-23T03:48:27.454Z,110.97
2023-02-23T03:51:12.997Z,113.40
2023-02-23T03:54:00.475Z,111.63
2023-02-23T03:56:45.553Z,112.75
2023-02-23T04:02:17.360Z,105.28
2023-02-23T04:05:02.756Z,103.95
2023-02-23T04:07:47.477Z,106.95
2023-02-23T04:10:32.118Z,113.30
2023-02-23T04:13:15.628Z,114.30
2023-02-23T04:15:45.810Z,112.05
2023-02-23T04:18:15.541Z,119.63
2023-02-23T04:20:42.903Z,121.93
2023-02-23T04:23:10.249Z,125.55
2023-02-23T04:25:37.797Z,119.13
2023-02-23T04:28:05.198Z,123.57
2023-02-23T04:30:32.713Z,125.07
2023-02-23T04:33:00.526Z,129.52
2023-02-23T04:35:31.251Z,125.60
2023-02-23T04:37:59.136Z,122.45
2023-02-23T04:40:26.521Z,118.20
2023-02-23T04:42:53.862Z,129.90
2023-02-23T04:45:22.059Z,127.57
2023-02-23T04:47:49.516Z,129.65
2023-02-23T04:50:17.141Z,122.63
2023-02-23T04:52:45.840Z,120.65
2023-02-23T04:55:16.918Z,117.75
2023-02-23T04:57:44.417Z,119.50
2023-02-23T05:00:12.511Z,120.97
2023-02-23T05:02:39.850Z,118.32
2023-02-23T05:05:07.565Z,115.75
2023-02-23T05:07:34.930Z,112.50
2023-02-23T05:10:03.810Z,113.88
2023-02-23T05:12:31.982Z,115.40
2023-02-23T05:14:59.637Z,121.70
2023-02-23T05:17:27.071Z,113.70
2023-02-23T05:19:54.457Z,113.65
2023-02-23T05:22:21.883Z,116.88
2023-02-23T05:24:49.307Z,110.32
2023-02-23T05:27:18.078Z,115.03
2023-02-23T05:29:45.411Z,108.53
2023-02-23T05:32:12.902Z,100.72
2023-02-23T05:34:40.940Z,104.78
2023-02-23T05:37:08.266Z,103.18
2023-02-23T05:39:35.649Z,101.32
2023-02-23T05:42:02.946Z,102.13
2023-02-23T05:44:31.701Z,101.28
2023-02-23T05:46:59.590Z,102.82
2023-02-23T05:49:26.932Z,104.30
2023-02-23T05:51:54.255Z,99.75
2023-02-23T05:54:22.092Z,100.93
2023-02-23T05:56:49.941Z,96.75
2023-02-23T05:59:17.361Z,96.65
2023-02-23T06:01:46.355Z,97.03
2023-02-23T06:04:14.068Z,93.53
2023-02-23T06:06:41.344Z,94.55
2023-02-23T06:09:08.641Z,96.95
2023-02-23T06:11:36.334Z,91.22
2023-02-23T06:14:03.683Z,100.78
2023-02-23T06:16:31.772Z,95.95
2023-02-23T06:19:00.611Z,92.85
2023-02-23T06:21:27.969Z,97.60
2023-02-23T06:23:55.603Z,95.30
2023-02-23T06:26:22.931Z,98.47
2023-02-23T06:28:50.517Z,96.80
2023-02-23T06:31:18.316Z,96.18
2023-02-23T06:33:45.896Z,104.32
2023-02-23T06:36:14.647Z,98.72
2023-02-23T06:38:41.971Z,102.65
2023-02-23T06:41:09.964Z,98.18
2023-02-23T06:43:37.319Z,98.47
2023-02-23T06:46:06.134Z,99.40
2023-02-23T06:48:33.491Z,95.57
2023-02-23T06:51:00.875Z,97.60
2023-02-23T06:53:30.490Z,102.55
2023-02-23T06:55:57.828Z,97.80
2023-02-23T06:58:25.149Z,101.30
2023-02-23T07:00:54.175Z,95.35
2023-02-23T07:03:21.504Z,93.43
2023-02-23T07:05:50.027Z,96.47
2023-02-23T07:08:18.143Z,95.78
2023-02-23T07:10:47.183Z,94.25
2023-02-23T07:13:14.563Z,87.72
2023-02-23T07:15:42.366Z,85.63
2023-02-23T07:18:09.742Z,85.53
2023-02-23T07:20:37.262Z,84.57
2023-02-23T07:23:04.580Z,83.10
2023-02-23T07:25:31.939Z,83.20
2023-02-23T07:28:00.680Z,83.38
2023-02-23T07:30:28.222Z,86.55
2023-02-23T07:32:55.667Z,84.65
2023-02-23T07:35:23.050Z,87.50
2023-02-23T07:37:50.402Z,86.60
2023-02-23T07:40:19.309Z,83.18
2023-02-23T07:42:46.607Z,83.63
2023-02-23T07:45:15.288Z,85.45
2023-02-23T07:47:42.590Z,85.97
2023-02-23T07:50:12.552Z,80.25
2023-02-23T07:52:40.577Z,84.50
2023-02-23T07:55:09.382Z,80.78
2023-02-23T07:57:36.737Z,85.22
2023-02-23T08:00:04.678Z,82.88
2023-02-23T08:02:33.484Z,81.50
2023-02-23T08:05:00.787Z,79.45
2023-02-23T08:07:28.093Z,84.10
2023-02-23T08:09:55.490Z,83.72
2023-02-23T08:12:22.849Z,83.38
2023-02-23T08:14:50.205Z,83.18
2023-02-23T08:17:17.736Z,78.38
2023-02-23T08:19:46.390Z,78.28
2023-02-23T08:22:13.769Z,79.18
2023-02-23T08:24:41.074Z,77.07
2023-02-23T08:27:08.586Z,78.00
2023-02-23T08:29:35.935Z,75.18
2023-02-23T08:32:03.965Z,77.97
2023-02-23T08:34:31.873Z,76.30
2023-02-23T08:37:00.919Z,76.18
2023-02-23T08:39:28.447Z,77.35
2023-02-23T08:41:55.744Z,80.68
2023-02-23T08:44:23.040Z,76.45
2023-02-23T08:46:50.376Z,74.13
2023-02-23T08:49:17.764Z,74.32
2023-02-23T08:51:46.840Z,77.30
2023-02-23T08:54:16.173Z,79.63
2023-02-23T08:56:43.755Z,82.30
2023-02-23T08:59:11.914Z,79.28
2023-02-23T09:01:39.335Z,82.78
2023-02-23T09:04:06.833Z,83.30
2023-02-23T09:06:35.163Z,81.45
2023-02-23T09:09:02.691Z,79.43
2023-02-23T09:11:31.310Z,80.90
2023-02-23T09:13:58.667Z,80.88
2023-02-23T09:16:26.095Z,77.45
2023-02-23T09:18:53.397Z,78.05
2023-02-23T09:21:25.015Z,78.10
2023-02-23T09:23:54.822Z,76.25
2023-02-23T09:26:22.824Z,73.00
2023-02-23T09:28:51.799Z,72.07
2023-02-23T09:31:21.181Z,71.03
2023-02-23T09:33:48.808Z,69.40
2023-02-23T09:36:17.134Z,68.57
2023-02-23T09:38:44.499Z,66.95
2023-02-23T09:41:33.288Z,62.63
2023-02-23T09:44:03.506Z,60.53
2023-02-23T09:46:33.476Z,61.95
2023-02-23T09:49:03.837Z,61.10
2023-02-23T09:51:32.805Z,60.13
2023-02-23T09:54:01.591Z,59.88
2023-02-23T09:56:31.555Z,61.08
2023-02-23T09:58:59.620Z,57.75
2023-02-23T10:01:45.756Z,62.10
2023-02-23T10:04:16.775Z,60.15
2023-02-23T10:06:45.718Z,61.83
2023-02-23T10:09:17.547Z,61.22
2023-02-23T10:11:46.809Z,58.35
2023-02-23T10:14:21.092Z,60.55
2023-02-23T10:16:55.038Z,60.90
2023-02-23T10:19:27.158Z,59.42
2023-02-23T10:21:56.728Z,57.33
2023-02-23T10:24:26.187Z,56.83
2023-02-23T10:26:55.078Z,55.78
2023-02-23T10:29:24.342Z,53.75
2023-02-23T10:31:57.044Z,52.10
2023-02-23T10:34:26.605Z,53.17
2023-02-23T10:36:58.575Z,64.63
2023-02-23T10:39:26.442Z,75.70
2023-02-23T10:41:54.189Z,78.50
2023-02-23T10:44:23.279Z,85.10
2023-02-23T10:46:54.764Z,85.30
2023-02-23T10:49:30.368Z,82.93
2023-02-23T10:54:44.552Z,82.20
2023-02-23T10:57:16.756Z,76.15
2023-02-23T10:59:58.914Z,71.47
2023-02-23T11:02:27.575Z,61.38
2023-02-23T11:04:57.252Z,58.30
2023-02-23T11:07:26.878Z,59.28
2023-02-23T11:09:54.263Z,54.88
2023-02-23T11:12:25.545Z,53.17
2023-02-23T11:14:53.734Z,51.88
2023-02-23T11:17:29.216Z,53.10
2023-02-23T11:20:02.448Z,61.70
2023-02-23T11:22:32.350Z,66.90
2023-02-23T11:24:59.908Z,69.75
2023-02-23T11:27:28.056Z,67.78
2023-02-23T11:29:56.761Z,63.53
2023-02-23T11:32:27.765Z,63.13
2023-02-23T11:35:10.056Z,66.63
2023-02-23T11:37:38.738Z,65.30
2023-02-23T11:40:19.971Z,64.70
2023-02-23T11:42:53.306Z,62.90
2023-02-23T11:45:21.486Z,64.57
2023-02-23T11:47:50.470Z,62.60
2023-02-23T11:50:28.919Z,62.15
2023-02-23T11:53:04.511Z,59.45
2023-02-23T11:55:32.454Z,56.58
2023-02-23T11:58:09.984Z,58.95
2023-02-23T12:00:37.318Z,57.10
2023-02-23T12:03:05.412Z,58.63
2023-02-23T12:05:33.197Z,62.58
2023-02-23T12:08:03.689Z,61.25
2023-02-23T12:10:33.682Z,63.10
2023-02-23T12:13:07.409Z,58.67
2023-02-23T12:15:41.182Z,62.08
2023-02-23T12:18:12.661Z,61.03
2023-02-23T12:20:41.833Z,65.57
2023-02-23T12:23:13.492Z,64.18
2023-02-23T12:25:43.669Z,61.90
2023-02-23T12:28:18.908Z,61.85
2023-02-23T12:30:49.176Z,64.30
2023-02-23T12:33:19.008Z,64.05
2023-02-23T12:35:51.100Z,61.42
2023-02-23T12:38:27.260Z,60.97
2023-02-23T12:41:02.622Z,60.85
2023-02-23T12:43:34.875Z,60.95
2023-02-23T12:46:08.430Z,59.42
2023-02-23T12:48:38.308Z,62.85
2023-02-23T12:51:07.756Z,60.10
2023-02-23T12:53:38.973Z,60.42
2023-02-23T12:56:12.484Z,58.92
2023-02-23T12:58:41.934Z,59.55
2023-02-23T13:01:12.676Z,59.53
2023-02-23T13:04:08.688Z,58.55
2023-02-23T13:06:40.648Z,60.20
2023-02-23T13:09:15.990Z,60.20
2023-02-23T13:11:58.337Z,60.35
2023-02-23T13:14:30.647Z,59.40
2023-02-23T13:17:01.424Z,58.88
2023-02-23T13:19:31.506Z,58.75
2023-02-23T13:22:01.741Z,54.92
2023-02-23T13:24:34.638Z,52.22
2023-02-23T13:27:02.838Z,51.08
2023-02-23T13:29:34.110Z,47.30
2023-02-23T13:32:02.290Z,51.22
2023-02-23T13:34:31.176Z,48.38
2023-02-23T13:36:59.430Z,47.70
2023-02-23T13:39:41.403Z,48.08
2023-02-23T13:42:15.909Z,48.45
2023-02-23T13:44:47.178Z,48.10
2023-02-23T13:47:19.118Z,47.42
2023-02-23T13:49:51.060Z,44.17
2023-02-23T13:52:23.138Z,38.90
2023-02-23T13:54:56.846Z,37.28
2023-02-23T13:57:24.918Z,35.67
2023-02-23T13:59:52.614Z,35.10
2023-02-23T14:02:24.441Z,34.15
2023-02-23T14:04:51.959Z,32.53
2023-02-23T14:07:25.002Z,31.90
2023-02-23T14:09:56.417Z,32.28
2023-02-23T14:12:25.016Z,32.67
2023-02-23T14:14:52.337Z,33.25
2023-02-23T14:17:50.506Z,30.02
2023-02-23T14:20:32.830Z,29.77
2023-02-23T14:23:15.316Z,29.17
2023-02-23T14:25:51.163Z,28.33
2023-02-23T14:28:27.541Z,28.40
2023-02-23T14:31:01.246Z,27.70
2023-02-23T14:33:35.551Z,28.42
2023-02-23T14:36:03.113Z,26.55
2023-02-23T14:38:47.158Z,28.13
2023-02-23T14:41:21.896Z,26.58
2023-02-23T14:43:52.300Z,27.37
2023-02-23T14:46:21.078Z,28.80
2023-02-23T14:48:59.620Z,27.52
2023-02-23T14:51:32.177Z,28.48
2023-02-23T14:54:00.094Z,28.45
2023-02-23T14:56:43.254Z,28.48
2023-02-23T14:59:18.742Z,29.05
2023-02-23T15:01:46.157Z,27.45
2023-02-23T15:04:14.890Z,28.27
2023-02-23T15:06:42.723Z,29.17
2023-02-23T15:09:16.846Z,28.35
2023-02-23T15:11:48.273Z,28.55
2023-02-23T15:14:26.966Z,27.25
2023-02-23T15:16:56.510Z,28.75
2023-02-23T15:19:25.211Z,26.77
2023-02-23T15:21:53.066Z,26.98
2023-02-23T15:24:24.451Z,25.50
2023-02-23T15:26:53.330Z,26.77
2023-02-23T15:29:21.848Z,27.95
2023-02-23T15:31:53.158Z,27.45
2023-02-23T15:34:21.665Z,28.95
2023-02-23T15:36:51.079Z,27.83
2023-02-23T15:39:19.750Z,26.70
2023-02-23T15:41:48.640Z,28.90
2023-02-23T15:44:21.771Z,28.45
2023-02-23T15:46:50.992Z,28.05
2023-02-23T15:49:20.271Z,27.17
2023-02-23T15:51:50.244Z,28.23
2023-02-23T15:54:19.996Z,27.42
2023-02-23T15:56:49.641Z,27.92
2023-02-23T15:59:21.679Z,28.33
2023-02-23T16:01:49.052Z,26.67
2023-02-23T16:04:17.906Z,28.10
2023-02-23T16:06:55.554Z,27.23
2023-02-23T16:09:27.242Z,26.23
2023-02-23T16:11:56.061Z,27.50
2023-02-23T16:14:25.285Z,27.33
2023-02-23T16:17:09.897Z,27.60
2023-02-23T16:19:40.907Z,29.08
2023-02-23T16:22:12.276Z,29.45
2023-02-23T16:24:39.653Z,27.52
2023-02-23T16:27:06.981Z,28.35
2023-02-23T16:29:41.416Z,27.20
2023-02-23T16:32:15.659Z,29.80
2023-02-23T16:34:48.472Z,28.17
2023-02-23T16:37:17.950Z,29.10
2023-02-23T16:39:45.867Z,27.85
2023-02-23T16:42:21.038Z,30.25
2023-02-23T16:44:49.827Z,30.65
2023-02-23T16:47:37.151Z,28.52
2023-02-23T16:50:19.184Z,29.80
2023-02-23T16:52:51.689Z,28.65
2023-02-23T16:55:19.468Z,29.70
2023-02-23T16:57:49.098Z,31.20
2023-02-23T17:00:22.671Z,30.20
2023-02-23T17:02:50.742Z,29.92
2023-02-23T17:05:20.283Z,30.05
2023-02-23T17:07:48.492Z,31.10
2023-02-23T17:10:24.540Z,30.30
2023-02-23T17:12:52.945Z,29.10
2023-02-23T17:15:22.307Z,30.02
2023-02-23T17:17:49.636Z,26.08
2023-02-23T17:20:21.320Z,30.38
2023-02-23T17:22:49.500Z,29.75
2023-02-23T17:25:16.961Z,28.55
2023-02-23T17:27:44.304Z,29.85
2023-02-23T17:30:12.191Z,29.48
2023-02-23T17:32:40.984Z,30.17
2023-02-23T17:35:08.732Z,28.02
2023-02-23T17:37:37.461Z,30.08
2023-02-23T17:40:06.599Z,30.02
2023-02-23T17:42:35.012Z,29.73
2023-02-23T17:45:02.643Z,28.92
2023-02-23T17:47:30.726Z,28.60
2023-02-23T17:49:59.623Z,28.92
2023-02-23T17:52:27.028Z,29.20
2023-02-23T17:54:55.143Z,28.50
2023-02-23T17:57:22.818Z,28.95
2023-02-23T17:59:50.324Z,29.73
2023-02-23T18:02:20.453Z,30.95
2023-02-23T18:04:48.242Z,31.33
2023-02-23T18:07:16.971Z,28.98
2023-02-23T18:09:44.637Z,31.38
2023-02-23T18:12:12.055Z,29.42
2023-02-23T18:14:39.430Z,30.90
2023-02-23T18:17:07.039Z,29.48
2023-02-23T18:19:34.498Z,30.25
2023-02-23T18:22:01.886Z,29.05
2023-02-23T18:24:32.222Z,26.77
2023-02-23T18:27:01.583Z,26.65
2023-02-23T18:29:29.401Z,27.25
2023-02-23T18:31:57.494Z,23.58
2023-02-23T18:34:25.574Z,24.38
2023-02-23T18:36:53.029Z,22.50
2023-02-23T18:39:20.326Z,22.02
2023-02-23T18:41:49.409Z,20.90
2023-02-23T18:44:17.615Z,20.38
2023-02-23T18:46:46.184Z,21.20
2023-02-23T18:49:14.524Z,22.75
2023-02-23T18:51:43.389Z,22.88
2023-02-23T18:54:16.610Z,23.67
2023-02-23T18:56:44.929Z,22.92
2023-02-23T18:59:13.664Z,25.42
2023-02-23T19:01:42.372Z,23.17
2023-02-23T19:04:10.522Z,23.15
2023-02-23T19:06:38.845Z,22.98
2023-02-23T19:09:09.495Z,23.02
2023-02-23T19:11:37.328Z,21.88
2023-02-23T19:14:05.702Z,22.83
2023-02-23T19:16:35.765Z,24.60
2023-02-23T19:19:03.971Z,24.15
2023-02-23T19:21:31.330Z,24.88
2023-02-23T19:24:00.890Z,27.00
2023-02-23T19:26:29.272Z,26.08
2023-02-23T19:28:56.691Z,25.10
2023-02-23T19:31:25.872Z,24.52
2023-02-23T19:33:55.865Z,28.20
2023-02-23T19:36:24.001Z,26.23
2023-02-23T19:38:51.435Z,26.02
2023-02-23T19:41:20.066Z,26.35
2023-02-23T19:43:47.848Z,25.25
2023-02-23T19:46:16.214Z,26.25
2023-02-23T19:48:44.860Z,29.08
2023-02-23T19:51:14.534Z,25.70
2023-02-23T19:53:41.909Z,26.88
2023-02-23T19:56:11.070Z,26.77
2023-02-23T19:58:38.952Z,29.02
2023-02-23T20:01:06.699Z,27.10
2023-02-23T20:03:34.084Z,28.67
2023-02-23T20:06:05.398Z,26.55
2023-02-23T20:08:34.378Z,27.08
2023-02-23T20:11:01.781Z,26.80
2023-02-23T20:13:29.154Z,25.70
2023-02-23T20:16:00.858Z,23.65
2023-02-23T20:18:28.617Z,24.65
2023-02-23T20:20:56.074Z,23.05
2023-02-23T20:23:23.390Z,22.80
2023-02-23T20:25:52.171Z,20.95
2023-02-23T20:28:19.509Z,20.50
2023-02-23T20:30:47.793Z,21.98
2023-02-23T20:33:15.473Z,22.67
2023-02-23T20:35:42.961Z,21.13
2023-02-23T20:38:11.387Z,20.50
2023-02-23T20:40:38.711Z,21.45
2023-02-23T20:43:07.379Z,19.13
2023-02-23T20:45:34.777Z,16.85
2023-02-23T20:48:04.627Z,15.10
2023-02-23T20:50:34.237Z,14.85
2023-02-23T20:53:02.322Z,15.80
2023-02-23T20:55:30.169Z,17.10
2023-02-23T20:57:57.691Z,15.57
2023-02-23T21:00:28.249Z,16.00
2023-02-23T21:02:56.172Z,15.52
2023-02-23T21:05:25.026Z,16.55
2023-02-23T21:07:52.399Z,18.13
2023-02-23T21:10:20.659Z,15.88
2023-02-23T21:12:47.939Z,17.70
2023-02-23T21:15:15.693Z,17.80
2023-02-23T21:17:44.336Z,16.95
2023-02-23T21:20:12.703Z,17.75
2023-02-23T21:22:40.083Z,16.15
2023-02-23T21:25:10.266Z,17.20
2023-02-23T21:27:37.793Z,17.80
2023-02-23T21:30:06.297Z,17.17
2023-02-23T21:32:41.246Z,18.35
2023-02-23T21:35:11.238Z,17.30
2023-02-23T21:37:38.953Z,17.58
2023-02-23T21:40:10.125Z,19.33
2023-02-23T21:42:37.677Z,19.35
2023-02-23T21:45:05.416Z,19.33
2023-02-23T21:47:34.869Z,20.77
2023-02-23T21:50:02.525Z,19.88
2023-02-23T21:52:31.257Z,28.02
2023-02-23T21:54:59.084Z,21.75
2023-02-23T21:57:28.124Z,28.95
2023-02-23T21:59:55.560Z,21.58
2023-02-23T22:02:23.001Z,20.42
2023-02-23T22:04:52.364Z,20.48
2023-02-23T22:07:21.664Z,20.10
2023-02-23T22:09:50.533Z,19.10
2023-02-23T22:12:17.858Z,18.15
2023-02-23T22:14:45.158Z,18.25
2023-02-23T22:17:12.789Z,17.17
2023-02-23T22:19:40.336Z,18.75
2023-02-23T22:22:07.881Z,19.08
2023-02-23T22:24:35.183Z,19.10
2023-02-23T22:27:04.102Z,17.67
2023-02-23T22:29:31.615Z,18.88
2023-02-23T22:31:59.103Z,19.13
2023-02-23T22:34:26.530Z,18.08
2023-02-23T22:36:53.862Z,17.90
2023-02-23T22:39:21.159Z,20.77
2023-02-23T22:41:48.920Z,17.98
2023-02-23T22:44:18.572Z,17.40
2023-02-23T22:46:47.917Z,17.15
2023-02-23T22:49:15.654Z,17.75
2023-02-23T22:51:43.805Z,18.50
2023-02-23T22:54:13.213Z,18.30
2023-02-23T22:56:41.938Z,17.27
2023-02-23T22:59:10.899Z,17.98
2023-02-23T23:01:40.308Z,16.90
2023-02-23T23:04:10.197Z,18.30
2023-02-23T23:06:38.432Z,20.27
2023-02-23T23:09:07.415Z,23.33
2023-02-23T23:11:36.153Z,29.45
2023-02-23T23:14:06.764Z,19.20
2023-02-23T23:16:35.092Z,19.48
2023-02-23T23:19:07.801Z,18.25
2023-02-23T23:21:35.655Z,19.02
2023-02-23T23:24:05.511Z,19.50
2023-02-23T23:26:34.450Z,20.67
2023-02-23T23:29:04.542Z,20.98
2023-02-23T23:31:34.546Z,22.35
2023-02-23T23:34:02.933Z,20.55
2023-02-23T23:36:33.380Z,19.10
2023-02-23T23:39:01.263Z,20.40
2023-02-23T23:41:29.566Z,20.42
2023-02-23T23:43:57.981Z,24.85
2023-02-23T23:46:26.633Z,26.38
2023-02-23T23:48:54.530Z,28.35
2023-02-23T23:51:24.151Z,31.40
2023-02-23T23:53:53.286Z,32.35
2023-02-23T23:56:21.762Z,36.80
2023-02-23T23:58:49.674Z,37.08
